sensor_id;sensor_type;location;lat;lon;timestamp;P1;durP1;ratioP1;P2;durP2;ratioP2
9942;SDS011;5010;45.080;7.634;2024-01-11T00:00:40;30.48;;;17.45;;
9942;SDS011;5010;45.080;7.634;2024-01-11T00:03:08;36.95;;;16.13;;
9942;SDS011;5010;45.080;7.634;2024-01-11T00:05:36;34.70;;;17.10;;
9942;SDS011;5010;45.080;7.634;2024-01-11T00:08:04;21.00;;;16.20;;
9942;SDS011;5010;45.080;7.634;2024-01-11T00:10:31;27.55;;;18.70;;
9942;SDS011;5010;45.080;7.634;2024-01-11T00:13:00;31.70;;;16.70;;
9942;SDS011;5010;45.080;7.634;2024-01-11T00:15:29;39.85;;;16.85;;
9942;SDS011;5010;45.080;7.634;2024-01-11T00:17:56;31.02;;;17.23;;
9942;SDS011;5010;45.080;7.634;2024-01-11T00:20:24;31.23;;;17.30;;
9942;SDS011;5010;45.080;7.634;2024-01-11T00:22:52;25.60;;;17.73;;
9942;SDS011;5010;45.080;7.634;2024-01-11T00:25:19;28.70;;;17.45;;
9942;SDS011;5010;45.080;7.634;2024-01-11T00:27:47;28.20;;;17.27;;
9942;SDS011;5010;45.080;7.634;2024-01-11T00:30:16;28.42;;;21.33;;
9942;SDS011;5010;45.080;7.634;2024-01-11T00:32:43;30.23;;;16.83;;
9942;SDS011;5010;45.080;7.634;2024-01-11T00:35:11;30.25;;;16.08;;
9942;SDS011;5010;45.080;7.634;2024-01-11T00:37:38;35.85;;;21.08;;
9942;SDS011;5010;45.080;7.634;2024-01-11T00:40:06;28.58;;;16.75;;
9942;SDS011;5010;45.080;7.634;2024-01-11T00:42:35;29.88;;;17.25;;
9942;SDS011;5010;45.080;7.634;2024-01-11T00:45:02;31.23;;;18.38;;
9942;SDS011;5010;45.080;7.634;2024-01-11T00:47:32;32.17;;;17.85;;
9942;SDS011;5010;45.080;7.634;2024-01-11T00:50:00;31.85;;;20.17;;
9942;SDS011;5010;45.080;7.634;2024-01-11T00:52:27;33.30;;;18.40;;
9942;SDS011;5010;45.080;7.634;2024-01-11T00:54:55;27.35;;;17.27;;
9942;SDS011;5010;45.080;7.634;2024-01-11T00:57:22;30.15;;;17.13;;
9942;SDS011;5010;45.080;7.634;2024-01-11T00:59:50;30.27;;;18.00;;
9942;SDS011;5010;45.080;7.634;2024-01-11T01:02:19;41.47;;;20.80;;
9942;SDS011;5010;45.080;7.634;2024-01-11T01:04:48;36.22;;;21.42;;
9942;SDS011;5010;45.080;7.634;2024-01-11T01:07:16;28.20;;;19.92;;
9942;SDS011;5010;45.080;7.634;2024-01-11T01:09:44;30.08;;;21.65;;
9942;SDS011;5010;45.080;7.634;2024-01-11T01:12:11;31.50;;;19.58;;
9942;SDS011;5010;45.080;7.634;2024-01-11T01:14:39;30.15;;;22.80;;
9942;SDS011;5010;45.080;7.634;2024-01-11T01:17:07;27.65;;;19.10;;
9942;SDS011;5010;45.080;7.634;2024-01-11T01:19:34;33.40;;;18.17;;
9942;SDS011;5010;45.080;7.634;2024-01-11T01:22:03;38.20;;;19.15;;
9942;SDS011;5010;45.080;7.634;2024-01-11T01:24:31;39.58;;;19.60;;
9942;SDS011;5010;45.080;7.634;2024-01-11T01:26:58;27.95;;;18.67;;
9942;SDS011;5010;45.080;7.634;2024-01-11T01:29:26;28.25;;;17.48;;
9942;SDS011;5010;45.080;7.634;2024-01-11T01:31:54;30.20;;;20.15;;
9942;SDS011;5010;45.080;7.634;2024-01-11T01:34:21;29.02;;;18.67;;
9942;SDS011;5010;45.080;7.634;2024-01-11T01:36:49;27.98;;;19.00;;
9942;SDS011;5010;45.080;7.634;2024-01-11T01:39:18;31.48;;;18.52;;
9942;SDS011;5010;45.080;7.634;2024-01-11T01:41:46;31.50;;;17.55;;
9942;SDS011;5010;45.080;7.634;2024-01-11T01:44:13;29.27;;;19.92;;
9942;SDS011;5010;45.080;7.634;2024-01-11T01:46:41;33.90;;;20.83;;
9942;SDS011;5010;45.080;7.634;2024-01-11T01:49:08;29.45;;;18.55;;
9942;SDS011;5010;45.080;7.634;2024-01-11T01:51:38;30.35;;;18.80;;
9942;SDS011;5010;45.080;7.634;2024-01-11T01:54:06;29.67;;;17.40;;
9942;SDS011;5010;45.080;7.634;2024-01-11T01:56:35;32.08;;;18.35;;
9942;SDS011;5010;45.080;7.634;2024-01-11T01:59:03;31.35;;;20.05;;
9942;SDS011;5010;45.080;7.634;2024-01-11T02:01:31;36.83;;;19.50;;
9942;SDS011;5010;45.080;7.634;2024-01-11T02:04:00;34.15;;;17.38;;
9942;SDS011;5010;45.080;7.634;2024-01-11T02:06:28;31.05;;;16.73;;
9942;SDS011;5010;45.080;7.634;2024-01-11T02:08:58;23.45;;;18.52;;
9942;SDS011;5010;45.080;7.634;2024-01-11T02:11:28;38.17;;;21.48;;
9942;SDS011;5010;45.080;7.634;2024-01-11T02:13:58;34.83;;;17.80;;
9942;SDS011;5010;45.080;7.634;2024-01-11T02:16:26;23.38;;;19.27;;
9942;SDS011;5010;45.080;7.634;2024-01-11T02:18:54;29.08;;;17.77;;
9942;SDS011;5010;45.080;7.634;2024-01-11T02:21:21;35.72;;;17.65;;
9942;SDS011;5010;45.080;7.634;2024-01-11T02:24:03;29.27;;;16.88;;
9942;SDS011;5010;45.080;7.634;2024-01-11T02:26:32;32.22;;;20.02;;
9942;SDS011;5010;45.080;7.634;2024-01-11T02:29:00;27.80;;;18.10;;
9942;SDS011;5010;45.080;7.634;2024-01-11T02:31:28;38.40;;;18.10;;
9942;SDS011;5010;45.080;7.634;2024-01-11T02:33:56;37.83;;;21.15;;
9942;SDS011;5010;45.080;7.634;2024-01-11T02:36:23;33.25;;;22.20;;
9942;SDS011;5010;45.080;7.634;2024-01-11T02:38:53;24.15;;;16.23;;
9942;SDS011;5010;45.080;7.634;2024-01-11T02:41:22;39.53;;;21.13;;
9942;SDS011;5010;45.080;7.634;2024-01-11T02:43:52;35.85;;;21.50;;
9942;SDS011;5010;45.080;7.634;2024-01-11T02:46:21;27.23;;;19.23;;
9942;SDS011;5010;45.080;7.634;2024-01-11T02:48:48;29.92;;;15.85;;
9942;SDS011;5010;45.080;7.634;2024-01-11T02:51:17;31.23;;;19.55;;
9942;SDS011;5010;45.080;7.634;2024-01-11T02:53:45;31.67;;;17.90;;
9942;SDS011;5010;45.080;7.634;2024-01-11T02:56:12;32.15;;;17.95;;
9942;SDS011;5010;45.080;7.634;2024-01-11T02:58:42;28.40;;;19.65;;
9942;SDS011;5010;45.080;7.634;2024-01-11T03:01:09;32.33;;;18.52;;
9942;SDS011;5010;45.080;7.634;2024-01-11T03:03:37;34.92;;;21.45;;
9942;SDS011;5010;45.080;7.634;2024-01-11T03:06:05;33.42;;;17.73;;
9942;SDS011;5010;45.080;7.634;2024-01-11T03:08:32;38.75;;;20.27;;
9942;SDS011;5010;45.080;7.634;2024-01-11T03:11:00;28.52;;;19.20;;
9942;SDS011;5010;45.080;7.634;2024-01-11T03:13:28;30.65;;;20.25;;
9942;SDS011;5010;45.080;7.634;2024-01-11T03:15:57;31.50;;;21.02;;
9942;SDS011;5010;45.080;7.634;2024-01-11T03:18:24;27.42;;;19.58;;
9942;SDS011;5010;45.080;7.634;2024-01-11T03:20:52;31.80;;;18.75;;
9942;SDS011;5010;45.080;7.634;2024-01-11T03:23:19;30.77;;;18.58;;
9942;SDS011;5010;45.080;7.634;2024-01-11T03:25:47;30.50;;;19.25;;
9942;SDS011;5010;45.080;7.634;2024-01-11T03:28:15;44.75;;;22.17;;
9942;SDS011;5010;45.080;7.634;2024-01-11T03:30:43;31.13;;;19.95;;
9942;SDS011;5010;45.080;7.634;2024-01-11T03:33:12;30.65;;;17.83;;
9942;SDS011;5010;45.080;7.634;2024-01-11T03:35:39;26.70;;;19.40;;
9942;SDS011;5010;45.080;7.634;2024-01-11T03:38:09;31.80;;;16.02;;
9942;SDS011;5010;45.080;7.634;2024-01-11T03:40:37;40.08;;;20.98;;
9942;SDS011;5010;45.080;7.634;2024-01-11T03:43:04;35.05;;;21.48;;
9942;SDS011;5010;45.080;7.634;2024-01-11T03:45:32;36.40;;;17.77;;
9942;SDS011;5010;45.080;7.634;2024-01-11T03:47:59;28.83;;;17.67;;
9942;SDS011;5010;45.080;7.634;2024-01-11T03:50:28;38.17;;;20.63;;
9942;SDS011;5010;45.080;7.634;2024-01-11T03:52:55;29.50;;;20.00;;
9942;SDS011;5010;45.080;7.634;2024-01-11T03:55:23;28.17;;;15.80;;
9942;SDS011;5010;45.080;7.634;2024-01-11T03:57:51;32.47;;;17.95;;
9942;SDS011;5010;45.080;7.634;2024-01-11T04:00:19;28.60;;;17.98;;
9942;SDS011;5010;45.080;7.634;2024-01-11T04:02:46;33.83;;;20.40;;
9942;SDS011;5010;45.080;7.634;2024-01-11T04:05:14;31.73;;;19.23;;
9942;SDS011;5010;45.080;7.634;2024-01-11T04:07:43;37.17;;;20.08;;
9942;SDS011;5010;45.080;7.634;2024-01-11T04:10:11;31.42;;;17.85;;
9942;SDS011;5010;45.080;7.634;2024-01-11T04:12:39;37.47;;;19.40;;
9942;SDS011;5010;45.080;7.634;2024-01-11T04:15:07;33.83;;;18.95;;
9942;SDS011;5010;45.080;7.634;2024-01-11T04:17:35;34.47;;;21.10;;
9942;SDS011;5010;45.080;7.634;2024-01-11T04:20:02;29.80;;;17.50;;
9942;SDS011;5010;45.080;7.634;2024-01-11T04:22:31;31.70;;;17.15;;
9942;SDS011;5010;45.080;7.634;2024-01-11T04:25:00;25.58;;;16.67;;
9942;SDS011;5010;45.080;7.634;2024-01-11T04:27:27;28.90;;;16.73;;
9942;SDS011;5010;45.080;7.634;2024-01-11T04:29:55;31.75;;;18.40;;
9942;SDS011;5010;45.080;7.634;2024-01-11T04:32:23;31.33;;;19.98;;
9942;SDS011;5010;45.080;7.634;2024-01-11T04:34:50;30.67;;;16.40;;
9942;SDS011;5010;45.080;7.634;2024-01-11T04:37:18;26.63;;;15.13;;
9942;SDS011;5010;45.080;7.634;2024-01-11T04:39:46;26.52;;;14.15;;
9942;SDS011;5010;45.080;7.634;2024-01-11T04:42:15;21.00;;;13.98;;
9942;SDS011;5010;45.080;7.634;2024-01-11T04:44:43;29.50;;;15.25;;
9942;SDS011;5010;45.080;7.634;2024-01-11T04:47:11;25.58;;;13.60;;
9942;SDS011;5010;45.080;7.634;2024-01-11T04:49:38;21.63;;;11.40;;
9942;SDS011;5010;45.080;7.634;2024-01-11T04:52:06;33.53;;;15.55;;
9942;SDS011;5010;45.080;7.634;2024-01-11T04:54:33;30.35;;;15.35;;
9942;SDS011;5010;45.080;7.634;2024-01-11T04:57:01;28.75;;;14.35;;
9942;SDS011;5010;45.080;7.634;2024-01-11T04:59:30;25.73;;;14.30;;
9942;SDS011;5010;45.080;7.634;2024-01-11T07:31:19;13.43;;;7.53;;
9942;SDS011;5010;45.080;7.634;2024-01-11T13:06:37;23.73;;;15.50;;
9942;SDS011;5010;45.080;7.634;2024-01-11T13:09:04;24.77;;;15.38;;
9942;SDS011;5010;45.080;7.634;2024-01-11T13:11:33;22.48;;;13.90;;
9942;SDS011;5010;45.080;7.634;2024-01-11T13:14:01;24.50;;;13.82;;
9942;SDS011;5010;45.080;7.634;2024-01-11T13:16:32;25.45;;;17.30;;
9942;SDS011;5010;45.080;7.634;2024-01-11T13:18:59;28.55;;;15.30;;
9942;SDS011;5010;45.080;7.634;2024-01-11T13:21:28;27.63;;;18.17;;
9942;SDS011;5010;45.080;7.634;2024-01-11T13:23:56;30.45;;;19.25;;
9942;SDS011;5010;45.080;7.634;2024-01-11T13:26:23;32.47;;;19.23;;
9942;SDS011;5010;45.080;7.634;2024-01-11T13:28:51;28.38;;;17.13;;
9942;SDS011;5010;45.080;7.634;2024-01-11T13:31:19;26.60;;;17.90;;
9942;SDS011;5010;45.080;7.634;2024-01-11T13:33:46;27.27;;;18.98;;
9942;SDS011;5010;45.080;7.634;2024-01-11T13:36:14;26.60;;;15.48;;
9942;SDS011;5010;45.080;7.634;2024-01-11T13:38:43;21.88;;;15.20;;
9942;SDS011;5010;45.080;7.634;2024-01-11T13:41:11;28.92;;;17.23;;
9942;SDS011;5010;45.080;7.634;2024-01-11T13:43:38;22.73;;;15.40;;
9942;SDS011;5010;45.080;7.634;2024-01-11T13:46:06;32.90;;;16.55;;
9942;SDS011;5010;45.080;7.634;2024-01-11T13:48:34;25.10;;;13.60;;
9942;SDS011;5010;45.080;7.634;2024-01-11T13:51:02;24.52;;;14.40;;
9942;SDS011;5010;45.080;7.634;2024-01-11T13:53:30;25.40;;;17.15;;
9942;SDS011;5010;45.080;7.634;2024-01-11T13:55:59;29.45;;;16.13;;
9942;SDS011;5010;45.080;7.634;2024-01-11T13:58:27;23.10;;;14.70;;
9942;SDS011;5010;45.080;7.634;2024-01-11T14:00:55;24.02;;;14.82;;
9942;SDS011;5010;45.080;7.634;2024-01-11T14:03:22;23.95;;;16.13;;
9942;SDS011;5010;45.080;7.634;2024-01-11T14:05:50;24.38;;;14.40;;
9942;SDS011;5010;45.080;7.634;2024-01-11T14:08:18;27.38;;;14.18;;
9942;SDS011;5010;45.080;7.634;2024-01-11T14:10:46;24.15;;;15.63;;
9942;SDS011;5010;45.080;7.634;2024-01-11T14:13:15;27.05;;;15.15;;
9942;SDS011;5010;45.080;7.634;2024-01-11T14:15:43;29.02;;;17.35;;
9942;SDS011;5010;45.080;7.634;2024-01-11T14:18:13;28.23;;;17.65;;
9942;SDS011;5010;45.080;7.634;2024-01-11T14:20:41;24.77;;;15.35;;
9942;SDS011;5010;45.080;7.634;2024-01-11T14:23:08;27.80;;;17.23;;
9942;SDS011;5010;45.080;7.634;2024-01-11T14:25:36;34.45;;;17.42;;
9942;SDS011;5010;45.080;7.634;2024-01-11T14:28:04;25.73;;;15.15;;
9942;SDS011;5010;45.080;7.634;2024-01-11T14:30:33;25.30;;;14.48;;
9942;SDS011;5010;45.080;7.634;2024-01-11T14:33:02;26.25;;;14.25;;
9942;SDS011;5010;45.080;7.634;2024-01-11T14:35:30;27.50;;;15.23;;
9942;SDS011;5010;45.080;7.634;2024-01-11T14:37:58;29.10;;;17.45;;
9942;SDS011;5010;45.080;7.634;2024-01-11T14:40:25;24.52;;;14.77;;
9942;SDS011;5010;45.080;7.634;2024-01-11T14:42:53;26.92;;;16.15;;
9942;SDS011;5010;45.080;7.634;2024-01-11T14:45:21;40.17;;;16.58;;
9942;SDS011;5010;45.080;7.634;2024-01-11T14:47:50;28.92;;;15.68;;
9942;SDS011;5010;45.080;7.634;2024-01-11T14:50:18;23.98;;;16.52;;
9942;SDS011;5010;45.080;7.634;2024-01-11T14:52:45;22.60;;;13.63;;
9942;SDS011;5010;45.080;7.634;2024-01-11T14:55:13;26.73;;;12.20;;
9942;SDS011;5010;45.080;7.634;2024-01-11T14:57:41;26.88;;;11.75;;
9942;SDS011;5010;45.080;7.634;2024-01-11T15:00:09;23.17;;;11.77;;
9942;SDS011;5010;45.080;7.634;2024-01-11T15:02:38;18.58;;;13.30;;
9942;SDS011;5010;45.080;7.634;2024-01-11T15:05:09;19.33;;;11.65;;
9942;SDS011;5010;45.080;7.634;2024-01-11T15:07:36;29.65;;;15.68;;
9942;SDS011;5010;45.080;7.634;2024-01-11T15:10:04;30.80;;;15.75;;
9942;SDS011;5010;45.080;7.634;2024-01-11T15:12:33;28.98;;;14.90;;
9942;SDS011;5010;45.080;7.634;2024-01-11T15:15:00;26.70;;;13.63;;
9942;SDS011;5010;45.080;7.634;2024-01-11T15:17:31;23.30;;;13.77;;
9942;SDS011;5010;45.080;7.634;2024-01-11T15:19:58;26.27;;;15.85;;
9942;SDS011;5010;45.080;7.634;2024-01-11T15:22:29;26.88;;;15.85;;
9942;SDS011;5010;45.080;7.634;2024-01-11T15:24:57;24.08;;;16.67;;
9942;SDS011;5010;45.080;7.634;2024-01-11T15:27:28;21.75;;;15.05;;
9942;SDS011;5010;45.080;7.634;2024-01-11T15:29:55;29.13;;;15.93;;
9942;SDS011;5010;45.080;7.634;2024-01-11T15:32:23;26.30;;;15.35;;
9942;SDS011;5010;45.080;7.634;2024-01-11T15:34:50;27.98;;;16.92;;
9942;SDS011;5010;45.080;7.634;2024-01-11T15:37:18;22.80;;;15.18;;
9942;SDS011;5010;45.080;7.634;2024-01-11T15:39:50;27.95;;;17.58;;
9942;SDS011;5010;45.080;7.634;2024-01-11T15:42:18;36.47;;;18.85;;
9942;SDS011;5010;45.080;7.634;2024-01-11T15:44:45;26.58;;;16.63;;
9942;SDS011;5010;45.080;7.634;2024-01-11T15:47:13;29.05;;;18.08;;
9942;SDS011;5010;45.080;7.634;2024-01-11T15:49:41;26.80;;;19.67;;
9942;SDS011;5010;45.080;7.634;2024-01-11T15:52:08;27.23;;;17.67;;
9942;SDS011;5010;45.080;7.634;2024-01-11T15:54:36;20.80;;;15.13;;
9942;SDS011;5010;45.080;7.634;2024-01-11T15:57:05;34.75;;;21.55;;
9942;SDS011;5010;45.080;7.634;2024-01-11T15:59:33;29.25;;;18.88;;
9942;SDS011;5010;45.080;7.634;2024-01-11T16:02:00;28.65;;;17.65;;
9942;SDS011;5010;45.080;7.634;2024-01-11T16:04:28;35.33;;;20.67;;
9942;SDS011;5010;45.080;7.634;2024-01-11T16:06:58;26.15;;;18.55;;
9942;SDS011;5010;45.080;7.634;2024-01-11T16:09:26;34.35;;;16.30;;
9942;SDS011;5010;45.080;7.634;2024-01-11T16:11:55;30.08;;;19.23;;
9942;SDS011;5010;45.080;7.634;2024-01-11T16:14:24;31.90;;;21.08;;
9942;SDS011;5010;45.080;7.634;2024-01-11T16:16:52;27.67;;;21.33;;
9942;SDS011;5010;45.080;7.634;2024-01-11T16:19:20;31.73;;;19.95;;
9942;SDS011;5010;45.080;7.634;2024-01-11T16:21:48;29.05;;;16.85;;
9942;SDS011;5010;45.080;7.634;2024-01-11T16:24:15;38.03;;;20.90;;
9942;SDS011;5010;45.080;7.634;2024-01-11T16:26:43;29.13;;;17.08;;
9942;SDS011;5010;45.080;7.634;2024-01-11T16:29:10;25.90;;;17.05;;
9942;SDS011;5010;45.080;7.634;2024-01-11T16:31:39;20.98;;;15.05;;
9942;SDS011;5010;45.080;7.634;2024-01-11T16:34:07;24.23;;;12.75;;
9942;SDS011;5010;45.080;7.634;2024-01-11T16:36:36;29.38;;;15.45;;
9942;SDS011;5010;45.080;7.634;2024-01-11T16:39:03;17.38;;;7.90;;
9942;SDS011;5010;45.080;7.634;2024-01-11T16:41:34;20.05;;;11.32;;
9942;SDS011;5010;45.080;7.634;2024-01-11T16:44:02;20.00;;;10.77;;
9942;SDS011;5010;45.080;7.634;2024-01-11T16:46:30;14.10;;;8.98;;
9942;SDS011;5010;45.080;7.634;2024-01-11T16:48:59;14.38;;;11.18;;
9942;SDS011;5010;45.080;7.634;2024-01-11T16:51:27;17.48;;;10.20;;
9942;SDS011;5010;45.080;7.634;2024-01-11T16:53:55;15.38;;;10.23;;
9942;SDS011;5010;45.080;7.634;2024-01-11T16:56:23;13.73;;;8.40;;
9942;SDS011;5010;45.080;7.634;2024-01-11T16:58:51;12.75;;;8.55;;
9942;SDS011;5010;45.080;7.634;2024-01-11T17:01:18;14.15;;;8.20;;
9942;SDS011;5010;45.080;7.634;2024-01-11T17:03:46;14.60;;;6.88;;
9942;SDS011;5010;45.080;7.634;2024-01-11T17:06:15;13.25;;;6.22;;
9942;SDS011;5010;45.080;7.634;2024-01-11T17:08:44;7.57;;;4.55;;
9942;SDS011;5010;45.080;7.634;2024-01-11T17:11:11;7.88;;;4.28;;
9942;SDS011;5010;45.080;7.634;2024-01-11T17:13:39;8.75;;;4.38;;
9942;SDS011;5010;45.080;7.634;2024-01-11T17:16:08;9.07;;;6.82;;
9942;SDS011;5010;45.080;7.634;2024-01-11T17:18:42;6.50;;;4.25;;
9942;SDS011;5010;45.080;7.634;2024-01-11T17:21:09;7.07;;;3.67;;
9942;SDS011;5010;45.080;7.634;2024-01-11T17:23:38;8.70;;;4.30;;
9942;SDS011;5010;45.080;7.634;2024-01-11T17:26:06;8.82;;;5.07;;
9942;SDS011;5010;45.080;7.634;2024-01-11T17:28:34;10.50;;;5.80;;
9942;SDS011;5010;45.080;7.634;2024-01-11T17:31:01;14.50;;;8.13;;
9942;SDS011;5010;45.080;7.634;2024-01-11T17:33:29;15.18;;;9.27;;
9942;SDS011;5010;45.080;7.634;2024-01-11T17:35:57;22.88;;;15.50;;
9942;SDS011;5010;45.080;7.634;2024-01-11T17:38:24;22.17;;;14.20;;
9942;SDS011;5010;45.080;7.634;2024-01-11T17:40:54;24.05;;;12.57;;
9942;SDS011;5010;45.080;7.634;2024-01-11T17:43:21;30.33;;;17.27;;
9942;SDS011;5010;45.080;7.634;2024-01-11T17:45:49;26.92;;;17.27;;
9942;SDS011;5010;45.080;7.634;2024-01-11T17:48:16;23.48;;;12.55;;
9942;SDS011;5010;45.080;7.634;2024-01-11T17:50:44;17.75;;;11.70;;
9942;SDS011;5010;45.080;7.634;2024-01-11T17:53:13;21.83;;;12.02;;
9942;SDS011;5010;45.080;7.634;2024-01-11T17:55:41;14.00;;;8.70;;
9942;SDS011;5010;45.080;7.634;2024-01-11T17:58:11;8.93;;;5.30;;
9942;SDS011;5010;45.080;7.634;2024-01-11T18:00:38;23.13;;;15.68;;
9942;SDS011;5010;45.080;7.634;2024-01-11T18:03:07;8.35;;;7.43;;
9942;SDS011;5010;45.080;7.634;2024-01-11T18:05:34;10.07;;;7.18;;
9942;SDS011;5010;45.080;7.634;2024-01-11T18:08:02;12.07;;;8.98;;
9942;SDS011;5010;45.080;7.634;2024-01-11T18:10:30;15.32;;;13.68;;
9942;SDS011;5010;45.080;7.634;2024-01-11T18:13:01;22.92;;;16.50;;
9942;SDS011;5010;45.080;7.634;2024-01-11T18:15:30;12.63;;;10.52;;
9942;SDS011;5010;45.080;7.634;2024-01-11T18:17:57;7.03;;;4.57;;
9942;SDS011;5010;45.080;7.634;2024-01-11T18:20:25;5.47;;;3.92;;
9942;SDS011;5010;45.080;7.634;2024-01-11T18:22:53;4.53;;;1.90;;
9942;SDS011;5010;45.080;7.634;2024-01-11T18:25:20;6.00;;;2.50;;
9942;SDS011;5010;45.080;7.634;2024-01-11T18:27:49;5.95;;;4.60;;
9942;SDS011;5010;45.080;7.634;2024-01-11T18:30:16;7.22;;;3.80;;
9942;SDS011;5010;45.080;7.634;2024-01-11T18:32:45;10.80;;;6.75;;
9942;SDS011;5010;45.080;7.634;2024-01-11T18:35:13;10.57;;;7.88;;
9942;SDS011;5010;45.080;7.634;2024-01-11T18:37:40;11.02;;;8.20;;
9942;SDS011;5010;45.080;7.634;2024-01-11T18:40:08;10.43;;;7.15;;
9942;SDS011;5010;45.080;7.634;2024-01-11T18:42:36;11.80;;;7.95;;
9942;SDS011;5010;45.080;7.634;2024-01-11T18:45:05;10.30;;;6.18;;
9942;SDS011;5010;45.080;7.634;2024-01-11T18:47:33;7.57;;;4.72;;
9942;SDS011;5010;45.080;7.634;2024-01-11T18:50:02;5.40;;;3.33;;
9942;SDS011;5010;45.080;7.634;2024-01-11T18:52:30;12.45;;;6.10;;
9942;SDS011;5010;45.080;7.634;2024-01-11T18:54:58;9.15;;;6.28;;
9942;SDS011;5010;45.080;7.634;2024-01-11T18:57:26;8.82;;;4.70;;
9942;SDS011;5010;45.080;7.634;2024-01-11T18:59:53;4.53;;;2.90;;
9942;SDS011;5010;45.080;7.634;2024-01-11T19:02:21;9.20;;;5.03;;
9942;SDS011;5010;45.080;7.634;2024-01-11T19:04:48;11.10;;;6.75;;
9942;SDS011;5010;45.080;7.634;2024-01-11T19:07:17;14.15;;;10.55;;
9942;SDS011;5010;45.080;7.634;2024-01-11T19:09:45;12.10;;;7.80;;
9942;SDS011;5010;45.080;7.634;2024-01-11T19:12:12;14.75;;;5.70;;
9942;SDS011;5010;45.080;7.634;2024-01-11T19:14:40;6.97;;;4.20;;
9942;SDS011;5010;45.080;7.634;2024-01-11T19:17:07;12.70;;;8.93;;
9942;SDS011;5010;45.080;7.634;2024-01-11T19:19:35;25.13;;;14.13;;
9942;SDS011;5010;45.080;7.634;2024-01-11T19:22:03;13.50;;;7.22;;
9942;SDS011;5010;45.080;7.634;2024-01-11T19:24:34;11.80;;;6.22;;
9942;SDS011;5010;45.080;7.634;2024-01-11T19:27:03;12.85;;;8.30;;
9942;SDS011;5010;45.080;7.634;2024-01-11T19:29:31;14.38;;;6.53;;
9942;SDS011;5010;45.080;7.634;2024-01-11T19:31:59;13.02;;;9.65;;
9942;SDS011;5010;45.080;7.634;2024-01-11T19:34:27;15.55;;;12.48;;
9942;SDS011;5010;45.080;7.634;2024-01-11T19:36:54;12.68;;;7.85;;
9942;SDS011;5010;45.080;7.634;2024-01-11T19:39:23;11.77;;;8.82;;
9942;SDS011;5010;45.080;7.634;2024-01-11T19:41:52;12.95;;;8.68;;
9942;SDS011;5010;45.080;7.634;2024-01-11T19:44:19;13.95;;;9.68;;
9942;SDS011;5010;45.080;7.634;2024-01-11T19:46:50;7.05;;;5.78;;
9942;SDS011;5010;45.080;7.634;2024-01-11T19:49:18;6.00;;;2.83;;
9942;SDS011;5010;45.080;7.634;2024-01-11T19:51:46;5.10;;;2.33;;
9942;SDS011;5010;45.080;7.634;2024-01-11T19:54:13;4.00;;;1.67;;
9942;SDS011;5010;45.080;7.634;2024-01-11T19:56:41;5.93;;;1.92;;
9942;SDS011;5010;45.080;7.634;2024-01-11T19:59:10;4.93;;;2.03;;
9942;SDS011;5010;45.080;7.634;2024-01-11T20:01:38;4.15;;;2.05;;
9942;SDS011;5010;45.080;7.634;2024-01-11T20:04:07;8.73;;;5.82;;
9942;SDS011;5010;45.080;7.634;2024-01-11T20:06:35;5.35;;;3.30;;
9942;SDS011;5010;45.080;7.634;2024-01-11T20:09:02;11.50;;;9.25;;
9942;SDS011;5010;45.080;7.634;2024-01-11T20:11:30;6.10;;;3.03;;
9942;SDS011;5010;45.080;7.634;2024-01-11T20:13:58;5.00;;;2.85;;
9942;SDS011;5010;45.080;7.634;2024-01-11T20:16:27;6.78;;;3.28;;
9942;SDS011;5010;45.080;7.634;2024-01-11T20:18:55;5.90;;;4.20;;
9942;SDS011;5010;45.080;7.634;2024-01-11T20:21:22;6.82;;;3.45;;
9942;SDS011;5010;45.080;7.634;2024-01-11T20:23:50;6.13;;;2.85;;
9942;SDS011;5010;45.080;7.634;2024-01-11T20:26:17;9.20;;;5.03;;
9942;SDS011;5010;45.080;7.634;2024-01-11T20:28:45;5.47;;;1.70;;
9942;SDS011;5010;45.080;7.634;2024-01-11T20:31:13;4.57;;;2.10;;
9942;SDS011;5010;45.080;7.634;2024-01-11T20:33:43;7.05;;;2.63;;
9942;SDS011;5010;45.080;7.634;2024-01-11T20:36:10;16.08;;;6.70;;
9942;SDS011;5010;45.080;7.634;2024-01-11T20:38:38;12.48;;;10.85;;
9942;SDS011;5010;45.080;7.634;2024-01-11T20:41:06;23.63;;;14.63;;
9942;SDS011;5010;45.080;7.634;2024-01-11T20:43:35;7.32;;;2.90;;
9942;SDS011;5010;45.080;7.634;2024-01-11T20:46:03;7.20;;;4.50;;
9942;SDS011;5010;45.080;7.634;2024-01-11T20:48:30;4.50;;;2.13;;
9942;SDS011;5010;45.080;7.634;2024-01-11T20:50:59;14.90;;;10.10;;
9942;SDS011;5010;45.080;7.634;2024-01-11T20:53:27;18.48;;;11.63;;
9942;SDS011;5010;45.080;7.634;2024-01-11T20:55:55;12.75;;;7.43;;
9942;SDS011;5010;45.080;7.634;2024-01-11T20:58:23;9.10;;;5.97;;
9942;SDS011;5010;45.080;7.634;2024-01-11T21:00:50;27.20;;;14.85;;
9942;SDS011;5010;45.080;7.634;2024-01-11T21:03:18;8.63;;;5.38;;
9942;SDS011;5010;45.080;7.634;2024-01-11T21:05:46;14.38;;;9.15;;
9942;SDS011;5010;45.080;7.634;2024-01-11T21:08:19;19.77;;;11.90;;
9942;SDS011;5010;45.080;7.634;2024-01-11T21:10:46;20.42;;;11.77;;
9942;SDS011;5010;45.080;7.634;2024-01-11T21:13:14;17.52;;;10.43;;
9942;SDS011;5010;45.080;7.634;2024-01-11T21:15:41;28.48;;;16.52;;
9942;SDS011;5010;45.080;7.634;2024-01-11T21:18:09;19.27;;;10.20;;
9942;SDS011;5010;45.080;7.634;2024-01-11T21:20:37;13.10;;;5.20;;
9942;SDS011;5010;45.080;7.634;2024-01-11T21:23:05;6.43;;;3.85;;
9942;SDS011;5010;45.080;7.634;2024-01-11T21:25:34;8.07;;;4.43;;
9942;SDS011;5010;45.080;7.634;2024-01-11T21:28:02;7.00;;;3.33;;
9942;SDS011;5010;45.080;7.634;2024-01-11T21:30:30;11.07;;;4.55;;
9942;SDS011;5010;45.080;7.634;2024-01-11T21:32:57;8.80;;;3.83;;
9942;SDS011;5010;45.080;7.634;2024-01-11T21:35:25;6.90;;;3.70;;
9942;SDS011;5010;45.080;7.634;2024-01-11T21:37:52;18.73;;;10.60;;
9942;SDS011;5010;45.080;7.634;2024-01-11T21:40:20;6.72;;;5.28;;
9942;SDS011;5010;45.080;7.634;2024-01-11T21:42:49;7.07;;;4.63;;
9942;SDS011;5010;45.080;7.634;2024-01-11T21:45:16;14.80;;;9.50;;
9942;SDS011;5010;45.080;7.634;2024-01-11T21:47:44;8.70;;;5.35;;
9942;SDS011;5010;45.080;7.634;2024-01-11T21:50:11;7.55;;;3.42;;
9942;SDS011;5010;45.080;7.634;2024-01-11T21:52:39;5.18;;;3.00;;
9942;SDS011;5010;45.080;7.634;2024-01-11T21:55:07;7.93;;;3.83;;
9942;SDS011;5010;45.080;7.634;2024-01-11T21:57:34;10.65;;;5.30;;
9942;SDS011;5010;45.080;7.634;2024-01-11T22:00:04;8.68;;;4.60;;
9942;SDS011;5010;45.080;7.634;2024-01-11T22:02:33;7.07;;;4.45;;
9942;SDS011;5010;45.080;7.634;2024-01-11T22:05:01;6.95;;;3.25;;
9942;SDS011;5010;45.080;7.634;2024-01-11T22:07:29;6.05;;;3.10;;
9942;SDS011;5010;45.080;7.634;2024-01-11T22:09:57;15.75;;;9.63;;
9942;SDS011;5010;45.080;7.634;2024-01-11T22:12:24;16.17;;;7.72;;
9942;SDS011;5010;45.080;7.634;2024-01-11T22:14:52;8.50;;;5.18;;
9942;SDS011;5010;45.080;7.634;2024-01-11T22:17:21;9.82;;;4.28;;
9942;SDS011;5010;45.080;7.634;2024-01-11T22:19:48;10.98;;;6.82;;
9942;SDS011;5010;45.080;7.634;2024-01-11T22:22:16;11.63;;;9.32;;
9942;SDS011;5010;45.080;7.634;2024-01-11T22:24:44;11.07;;;5.93;;
9942;SDS011;5010;45.080;7.634;2024-01-11T22:27:11;6.35;;;3.10;;
9942;SDS011;5010;45.080;7.634;2024-01-11T22:29:39;6.30;;;3.08;;
9942;SDS011;5010;45.080;7.634;2024-01-11T22:32:06;5.53;;;3.10;;
9942;SDS011;5010;45.080;7.634;2024-01-11T22:34:35;6.35;;;3.80;;
9942;SDS011;5010;45.080;7.634;2024-01-11T22:37:03;7.68;;;5.72;;
9942;SDS011;5010;45.080;7.634;2024-01-11T22:39:30;10.98;;;4.40;;
9942;SDS011;5010;45.080;7.634;2024-01-11T22:41:58;5.43;;;3.13;;
9942;SDS011;5010;45.080;7.634;2024-01-11T22:44:25;5.07;;;3.15;;
9942;SDS011;5010;45.080;7.634;2024-01-11T22:46:54;7.95;;;2.83;;
9942;SDS011;5010;45.080;7.634;2024-01-11T22:49:21;14.65;;;7.57;;
9942;SDS011;5010;45.080;7.634;2024-01-11T22:51:51;13.65;;;6.78;;
9942;SDS011;5010;45.080;7.634;2024-01-11T22:54:18;10.63;;;4.72;;
9942;SDS011;5010;45.080;7.634;2024-01-11T22:56:46;6.03;;;3.85;;
9942;SDS011;5010;45.080;7.634;2024-01-11T22:59:17;8.77;;;3.90;;
9942;SDS011;5010;45.080;7.634;2024-01-11T23:01:44;7.15;;;4.82;;